createdAt,value
2022-08-04T00:00:44.668Z,22.8
2022-08-04T00:01:44.988Z,22.78
2022-08-04T00:02:46.933Z,22.81
2022-08-04T00:03:44.669Z,22.89
2022-08-04T00:04:44.695Z,22.88
2022-08-04T00:05:44.705Z,22.95
2022-08-04T00:07:49.456Z,22.89
2022-08-04T00:08:44.685Z,22.98
2022-08-04T00:09:44.716Z,23.04
2022-08-04T00:10:47.426Z,23.02
2022-08-04T00:11:44.683Z,22.92
2022-08-04T00:12:44.705Z,22.7
2022-08-04T00:14:07.746Z,22.7
2022-08-04T00:14:44.708Z,22.63
2022-08-04T00:15:44.695Z,22.68
2022-08-04T00:16:47.804Z,22.59
2022-08-04T00:17:44.717Z,22.67
2022-08-04T00:18:44.736Z,22.71
2022-08-04T00:19:44.714Z,22.7
2022-08-04T00:20:44.713Z,22.74
2022-08-04T00:21:47.596Z,22.81
2022-08-04T00:22:44.701Z,22.74
2022-08-04T00:24:18.730Z,22.71
2022-08-04T00:24:44.793Z,22.73
2022-08-04T00:25:44.705Z,22.67
2022-08-04T00:26:44.768Z,22.7
2022-08-04T00:27:44.711Z,22.88
2022-08-04T00:28:44.711Z,22.78
2022-08-04T00:29:44.741Z,22.89
2022-08-04T00:30:44.712Z,22.89
2022-08-04T00:32:00.742Z,22.78
2022-08-04T00:32:44.721Z,22.88
2022-08-04T00:33:47.130Z,22.88
2022-08-04T00:34:44.745Z,22.74
2022-08-04T00:35:44.725Z,22.71
2022-08-04T00:36:44.729Z,22.78
2022-08-04T00:37:44.741Z,22.83
2022-08-04T00:38:44.732Z,22.74
2022-08-04T00:39:45.002Z,22.78
2022-08-04T00:40:44.742Z,22.84
2022-08-04T00:42:01.370Z,22.78
2022-08-04T00:43:01.410Z,22.76
2022-08-04T00:43:44.740Z,22.78
2022-08-04T00:44:44.766Z,22.76
2022-08-04T00:46:20.805Z,22.52
2022-08-04T00:46:44.744Z,22.55
2022-08-04T00:47:44.765Z,22.43
2022-08-04T00:48:47.632Z,22.36
2022-08-04T00:49:44.780Z,22.52
2022-08-04T00:50:46.354Z,22.41
2022-08-04T00:51:44.754Z,22.37
2022-08-04T00:52:44.761Z,22.28
2022-08-04T00:53:54.427Z,22.21
2022-08-04T00:54:44.873Z,22.28
2022-08-04T00:55:44.771Z,22.22
2022-08-04T00:56:44.773Z,22.15
2022-08-04T00:57:44.767Z,22.28
2022-08-04T00:58:44.765Z,22.31
2022-08-04T00:59:47.872Z,22.12
2022-08-04T01:00:44.770Z,22.33
2022-08-04T01:01:45.032Z,22.1
2022-08-04T01:02:44.767Z,22.1
2022-08-04T01:03:44.774Z,22.15
2022-08-04T01:04:47.925Z,22.12
2022-08-04T01:05:44.783Z,22.12
2022-08-04T01:06:44.797Z,22.07
2022-08-04T01:07:44.774Z,22.16
2022-08-04T01:08:44.789Z,22.04
2022-08-04T01:09:44.798Z,21.92
2022-08-04T01:10:44.795Z,22
2022-08-04T01:12:03.178Z,21.94
2022-08-04T01:12:44.798Z,22.04
2022-08-04T01:13:44.790Z,22.1
2022-08-04T01:14:44.807Z,22.12
2022-08-04T01:16:05.113Z,22.15
2022-08-04T01:16:44.812Z,22.04
2022-08-04T01:17:44.845Z,22.06
2022-08-04T01:18:44.803Z,22.19
2022-08-04T01:19:44.809Z,22.14
2022-08-04T01:20:44.817Z,22.18
2022-08-04T01:21:44.808Z,21.94
2022-08-04T01:22:44.815Z,21.99
2022-08-04T01:23:44.811Z,22.01
2022-08-04T01:24:45.659Z,22.01
2022-08-04T01:25:46.622Z,22.01
2022-08-04T01:27:02.299Z,21.99
2022-08-04T01:27:47.270Z,22.04
2022-08-04T01:28:47.625Z,22
2022-08-04T01:29:51.240Z,22.1
2022-08-04T01:30:44.837Z,22.06
2022-08-04T01:31:44.836Z,22.03
2022-08-04T01:32:44.853Z,22.15
2022-08-04T01:34:08.643Z,22.15
2022-08-04T01:34:44.832Z,22.12
2022-08-04T01:35:52.738Z,21.96
2022-08-04T01:36:52.148Z,22.03
2022-08-04T01:37:47.723Z,22.06
2022-08-04T01:38:44.838Z,22.1
2022-08-04T01:39:44.844Z,21.92
2022-08-04T01:40:44.881Z,21.99
2022-08-04T01:42:03.742Z,22.03
2022-08-04T01:42:44.854Z,21.91
2022-08-04T01:43:44.845Z,21.81
2022-08-04T01:44:44.852Z,22
2022-08-04T01:45:44.887Z,21.83
2022-08-04T01:46:44.851Z,21.84
2022-08-04T01:47:44.855Z,21.75
2022-08-04T01:48:48.471Z,21.74
2022-08-04T01:49:45.693Z,21.6
2022-08-04T01:50:44.888Z,21.69
2022-08-04T01:51:44.869Z,21.81
2022-08-04T01:52:51.066Z,21.83
2022-08-04T01:53:45.081Z,21.7
2022-08-04T01:54:44.874Z,21.65
2022-08-04T01:56:02.194Z,21.75
2022-08-04T01:56:44.871Z,21.69
2022-08-04T01:57:45.041Z,21.66
2022-08-04T01:58:45.573Z,21.7
2022-08-04T01:59:47.685Z,21.74
2022-08-04T02:00:44.927Z,21.58
2022-08-04T02:01:45.335Z,21.48
2022-08-04T02:02:45.140Z,21.43
2022-08-04T02:04:27.126Z,21.65
2022-08-04T02:04:44.897Z,21.63
2022-08-04T02:06:08.679Z,21.63
2022-08-04T02:06:44.901Z,21.62
2022-08-04T02:07:44.891Z,21.53
2022-08-04T02:08:44.895Z,21.65
2022-08-04T02:09:59.524Z,21.69
2022-08-04T02:10:47.705Z,21.7
2022-08-04T02:11:44.903Z,21.72
2022-08-04T02:12:44.980Z,21.75
2022-08-04T02:13:44.907Z,21.75
2022-08-04T02:14:44.911Z,21.66
2022-08-04T02:15:44.935Z,21.77
2022-08-04T02:16:44.914Z,21.83
2022-08-04T02:17:44.915Z,21.88
2022-08-04T02:18:44.914Z,21.83
2022-08-04T02:19:44.916Z,21.78
2022-08-04T02:20:44.943Z,21.7
2022-08-04T02:21:50.382Z,21.84
2022-08-04T02:22:44.928Z,21.75
2022-08-04T02:23:44.929Z,21.75
2022-08-04T02:24:44.925Z,21.75
2022-08-04T02:25:44.961Z,21.74
2022-08-04T02:26:44.964Z,21.75
2022-08-04T02:28:04.619Z,21.62
2022-08-04T02:28:44.930Z,21.75
2022-08-04T02:29:44.934Z,21.77
2022-08-04T02:30:44.953Z,21.63
2022-08-04T02:31:44.935Z,21.56
2022-08-04T02:32:47.989Z,21.56
2022-08-04T02:33:44.961Z,21.48
2022-08-04T02:34:45.012Z,21.48
2022-08-04T02:35:44.974Z,21.51
2022-08-04T02:36:44.962Z,21.5
2022-08-04T02:37:47.797Z,21.5
2022-08-04T02:38:44.946Z,21.4
2022-08-04T02:39:52.690Z,21.37
2022-08-04T02:40:44.971Z,21.29
2022-08-04T02:41:44.965Z,21.38
2022-08-04T02:42:44.971Z,21.44
2022-08-04T02:43:56.626Z,21.45
2022-08-04T02:44:44.960Z,21.38
2022-08-04T02:45:44.998Z,21.25
2022-08-04T02:46:44.960Z,21.25
2022-08-04T02:48:34.385Z,21.22
2022-08-04T02:48:46.816Z,21.25
2022-08-04T02:49:47.154Z,21.19
2022-08-04T02:50:46.787Z,21.14
2022-08-04T02:51:46.776Z,20.96
2022-08-04T02:52:46.771Z,20.96
2022-08-04T02:53:46.775Z,21.03
2022-08-04T02:54:46.787Z,21.03
2022-08-04T02:55:58.967Z,21.11
2022-08-04T02:56:46.923Z,21.14
2022-08-04T02:57:46.793Z,21.15
2022-08-04T02:58:46.794Z,21.22
2022-08-04T02:59:46.780Z,21.22
2022-08-04T03:00:46.996Z,21.13
2022-08-04T03:02:02.564Z,21.15
2022-08-04T03:02:46.782Z,21.17
2022-08-04T03:03:46.793Z,21.05
2022-08-04T03:04:46.789Z,21.07
